sensor_id;sensor_type;location;lat;lon;timestamp;P1;durP1;ratioP1;P2;durP2;ratioP2
77148;SDS011;66122;47.130;16.844;2023-09-19T00:07:40;0.93;;;0.83;;
77148;SDS011;66122;47.130;16.844;2023-09-19T00:17:43;1.40;;;1.30;;
77148;SDS011;66122;47.130;16.844;2023-09-19T00:27:46;1.37;;;1.27;;
77148;SDS011;66122;47.130;16.844;2023-09-19T00:37:50;1.20;;;1.10;;
77148;SDS011;66122;47.130;16.844;2023-09-19T00:47:53;1.00;;;0.90;;
77148;SDS011;66122;47.130;16.844;2023-09-19T00:57:56;0.90;;;0.80;;
77148;SDS011;66122;47.130;16.844;2023-09-19T01:07:59;1.10;;;1.00;;
77148;SDS011;66122;47.130;16.844;2023-09-19T01:28:32;1.00;;;0.90;;
77148;SDS011;66122;47.130;16.844;2023-09-19T01:38:46;0.97;;;0.87;;
77148;SDS011;66122;47.130;16.844;2023-09-19T01:59:16;1.30;;;1.20;;
77148;SDS011;66122;47.130;16.844;2023-09-19T02:09:24;1.00;;;0.90;;
77148;SDS011;66122;47.130;16.844;2023-09-19T02:19:26;1.10;;;1.00;;
77148;SDS011;66122;47.130;16.844;2023-09-19T02:29:31;1.35;;;1.25;;
77148;SDS011;66122;47.130;16.844;2023-09-19T02:39:34;1.53;;;1.43;;
77148;SDS011;66122;47.130;16.844;2023-09-19T02:49:37;1.00;;;0.90;;
77148;SDS011;66122;47.130;16.844;2023-09-19T02:59:40;1.23;;;1.13;;
77148;SDS011;66122;47.130;16.844;2023-09-19T03:09:44;1.00;;;0.90;;
77148;SDS011;66122;47.130;16.844;2023-09-19T03:19:47;1.23;;;1.13;;
77148;SDS011;66122;47.130;16.844;2023-09-19T03:29:50;1.27;;;1.17;;
77148;SDS011;66122;47.130;16.844;2023-09-19T03:39:53;0.90;;;0.80;;
77148;SDS011;66122;47.130;16.844;2023-09-19T03:49:58;1.30;;;1.20;;
77148;SDS011;66122;47.130;16.844;2023-09-19T04:00:01;1.10;;;1.00;;
77148;SDS011;66122;47.130;16.844;2023-09-19T04:10:13;1.00;;;0.90;;
77148;SDS011;66122;47.130;16.844;2023-09-19T04:20:17;0.80;;;0.70;;
77148;SDS011;66122;47.130;16.844;2023-09-19T04:30:28;0.80;;;0.70;;
77148;SDS011;66122;47.130;16.844;2023-09-19T04:40:31;0.80;;;0.70;;
77148;SDS011;66122;47.130;16.844;2023-09-19T04:50:35;0.80;;;0.60;;
77148;SDS011;66122;47.130;16.844;2023-09-19T05:00:37;0.97;;;0.87;;
77148;SDS011;66122;47.130;16.844;2023-09-19T05:10:40;0.80;;;0.70;;
77148;SDS011;66122;47.130;16.844;2023-09-19T05:20:43;1.02;;;0.93;;
77148;SDS011;66122;47.130;16.844;2023-09-19T05:30:49;0.80;;;0.70;;
77148;SDS011;66122;47.130;16.844;2023-09-19T05:40:55;0.83;;;0.80;;
77148;SDS011;66122;47.130;16.844;2023-09-19T05:50:57;1.08;;;0.98;;
77148;SDS011;66122;47.130;16.844;2023-09-19T06:01:02;0.90;;;0.80;;
77148;SDS011;66122;47.130;16.844;2023-09-19T06:11:04;0.90;;;0.80;;
77148;SDS011;66122;47.130;16.844;2023-09-19T06:21:09;0.97;;;0.87;;
77148;SDS011;66122;47.130;16.844;2023-09-19T06:31:12;0.80;;;0.70;;
77148;SDS011;66122;47.130;16.844;2023-09-19T06:41:14;1.00;;;0.90;;
77148;SDS011;66122;47.130;16.844;2023-09-19T06:51:20;1.10;;;1.00;;
77148;SDS011;66122;47.130;16.844;2023-09-19T07:01:23;1.00;;;0.90;;
77148;SDS011;66122;47.130;16.844;2023-09-19T07:11:27;0.90;;;0.80;;
77148;SDS011;66122;47.130;16.844;2023-09-19T07:21:29;1.10;;;1.00;;
77148;SDS011;66122;47.130;16.844;2023-09-19T07:31:32;1.50;;;1.40;;
77148;SDS011;66122;47.130;16.844;2023-09-19T07:41:35;1.17;;;1.07;;
77148;SDS011;66122;47.130;16.844;2023-09-19T07:51:37;1.10;;;1.00;;
77148;SDS011;66122;47.130;16.844;2023-09-19T08:01:40;1.30;;;1.20;;
77148;SDS011;66122;47.130;16.844;2023-09-19T08:11:43;1.10;;;1.00;;
77148;SDS011;66122;47.130;16.844;2023-09-19T08:21:47;1.23;;;1.13;;
77148;SDS011;66122;47.130;16.844;2023-09-19T08:31:51;1.40;;;1.30;;
77148;SDS011;66122;47.130;16.844;2023-09-19T08:41:58;1.30;;;1.20;;
77148;SDS011;66122;47.130;16.844;2023-09-19T08:52:05;1.20;;;1.10;;
77148;SDS011;66122;47.130;16.844;2023-09-19T09:02:17;1.40;;;1.30;;
77148;SDS011;66122;47.130;16.844;2023-09-19T09:12:21;1.40;;;1.30;;
77148;SDS011;66122;47.130;16.844;2023-09-19T09:22:24;1.90;;;1.80;;
77148;SDS011;66122;47.130;16.844;2023-09-19T09:32:30;1.50;;;1.40;;
77148;SDS011;66122;47.130;16.844;2023-09-19T09:42:36;1.40;;;1.30;;
77148;SDS011;66122;47.130;16.844;2023-09-19T09:52:44;1.52;;;1.42;;
77148;SDS011;66122;47.130;16.844;2023-09-19T10:02:47;1.60;;;1.50;;
77148;SDS011;66122;47.130;16.844;2023-09-19T10:12:50;1.70;;;1.60;;
77148;SDS011;66122;47.130;16.844;2023-09-19T10:22:59;1.98;;;1.88;;
77148;SDS011;66122;47.130;16.844;2023-09-19T10:33:03;1.70;;;1.60;;
77148;SDS011;66122;47.130;16.844;2023-09-19T10:43:07;1.80;;;1.70;;
77148;SDS011;66122;47.130;16.844;2023-09-19T10:53:14;1.90;;;1.80;;
77148;SDS011;66122;47.130;16.844;2023-09-19T11:03:19;2.20;;;2.10;;
77148;SDS011;66122;47.130;16.844;2023-09-19T11:13:33;1.73;;;1.63;;
77148;SDS011;66122;47.130;16.844;2023-09-19T11:23:41;2.30;;;2.20;;
77148;SDS011;66122;47.130;16.844;2023-09-19T11:33:49;1.90;;;1.80;;
77148;SDS011;66122;47.130;16.844;2023-09-19T11:44:32;2.23;;;2.13;;
77148;SDS011;66122;47.130;16.844;2023-09-19T11:54:37;2.23;;;2.13;;
77148;SDS011;66122;47.130;16.844;2023-09-19T12:04:44;2.42;;;2.33;;
77148;SDS011;66122;47.130;16.844;2023-09-19T12:14:51;2.67;;;2.57;;
77148;SDS011;66122;47.130;16.844;2023-09-19T12:25:03;2.30;;;2.20;;
77148;SDS011;66122;47.130;16.844;2023-09-19T12:35:08;2.17;;;2.08;;
77148;SDS011;66122;47.130;16.844;2023-09-19T12:45:13;2.27;;;2.17;;
77148;SDS011;66122;47.130;16.844;2023-09-19T12:55:24;1.90;;;1.80;;
77148;SDS011;66122;47.130;16.844;2023-09-19T13:05:50;2.05;;;1.95;;
77148;SDS011;66122;47.130;16.844;2023-09-19T13:15:56;1.80;;;1.70;;
77148;SDS011;66122;47.130;16.844;2023-09-19T13:26:03;1.70;;;1.60;;
77148;SDS011;66122;47.130;16.844;2023-09-19T13:36:09;1.77;;;1.67;;
77148;SDS011;66122;47.130;16.844;2023-09-19T13:46:11;1.50;;;1.40;;
77148;SDS011;66122;47.130;16.844;2023-09-19T13:56:18;1.63;;;1.53;;
77148;SDS011;66122;47.130;16.844;2023-09-19T14:06:20;1.37;;;1.27;;
77148;SDS011;66122;47.130;16.844;2023-09-19T14:16:23;1.30;;;1.20;;
77148;SDS011;66122;47.130;16.844;2023-09-19T14:26:27;1.30;;;1.20;;
77148;SDS011;66122;47.130;16.844;2023-09-19T14:36:35;1.57;;;1.47;;
77148;SDS011;66122;47.130;16.844;2023-09-19T14:46:38;1.00;;;0.90;;
77148;SDS011;66122;47.130;16.844;2023-09-19T14:56:43;0.87;;;0.80;;
77148;SDS011;66122;47.130;16.844;2023-09-19T15:06:46;1.27;;;1.17;;
77148;SDS011;66122;47.130;16.844;2023-09-19T15:16:51;1.00;;;0.90;;
77148;SDS011;66122;47.130;16.844;2023-09-19T15:26:54;1.27;;;1.17;;
77148;SDS011;66122;47.130;16.844;2023-09-19T15:36:58;1.43;;;1.33;;
77148;SDS011;66122;47.130;16.844;2023-09-19T15:47:00;1.43;;;1.33;;
77148;SDS011;66122;47.130;16.844;2023-09-19T15:57:03;1.20;;;1.10;;
77148;SDS011;66122;47.130;16.844;2023-09-19T16:07:06;0.87;;;0.77;;
77148;SDS011;66122;47.130;16.844;2023-09-19T16:17:09;1.00;;;0.90;;
77148;SDS011;66122;47.130;16.844;2023-09-19T16:27:13;1.00;;;0.90;;
77148;SDS011;66122;47.130;16.844;2023-09-19T16:37:17;0.80;;;0.73;;
77148;SDS011;66122;47.130;16.844;2023-09-19T16:47:21;1.10;;;1.00;;
77148;SDS011;66122;47.130;16.844;2023-09-19T16:57:23;1.27;;;1.17;;
77148;SDS011;66122;47.130;16.844;2023-09-19T17:07:26;0.90;;;0.80;;
77148;SDS011;66122;47.130;16.844;2023-09-19T17:17:28;1.00;;;0.90;;
77148;SDS011;66122;47.130;16.844;2023-09-19T17:27:31;0.87;;;0.77;;
77148;SDS011;66122;47.130;16.844;2023-09-19T17:37:35;0.90;;;0.80;;
77148;SDS011;66122;47.130;16.844;2023-09-19T17:47:41;1.10;;;1.00;;
77148;SDS011;66122;47.130;16.844;2023-09-19T17:57:44;0.90;;;0.70;;
77148;SDS011;66122;47.130;16.844;2023-09-19T18:07:53;1.35;;;1.25;;
77148;SDS011;66122;47.130;16.844;2023-09-19T18:17:56;0.90;;;0.80;;
77148;SDS011;66122;47.130;16.844;2023-09-19T18:27:59;0.93;;;0.83;;
77148;SDS011;66122;47.130;16.844;2023-09-19T18:38:01;1.30;;;1.20;;
77148;SDS011;66122;47.130;16.844;2023-09-19T18:48:04;1.50;;;1.40;;
77148;SDS011;66122;47.130;16.844;2023-09-19T18:58:08;1.00;;;0.90;;
77148;SDS011;66122;47.130;16.844;2023-09-19T19:08:11;1.00;;;0.90;;
77148;SDS011;66122;47.130;16.844;2023-09-19T19:18:15;0.85;;;0.80;;
77148;SDS011;66122;47.130;16.844;2023-09-19T19:28:18;0.87;;;0.80;;
77148;SDS011;66122;47.130;16.844;2023-09-19T19:38:20;0.80;;;0.70;;
77148;SDS011;66122;47.130;16.844;2023-09-19T19:48:26;1.33;;;1.23;;
77148;SDS011;66122;47.130;16.844;2023-09-19T19:58:30;0.90;;;0.80;;
77148;SDS011;66122;47.130;16.844;2023-09-19T20:08:34;1.00;;;0.90;;
77148;SDS011;66122;47.130;16.844;2023-09-19T20:18:37;1.10;;;1.00;;
77148;SDS011;66122;47.130;16.844;2023-09-19T20:28:42;1.20;;;1.10;;
77148;SDS011;66122;47.130;16.844;2023-09-19T20:38:45;0.80;;;0.70;;
77148;SDS011;66122;47.130;16.844;2023-09-19T20:48:48;0.90;;;0.80;;
77148;SDS011;66122;47.130;16.844;2023-09-19T20:58:51;1.20;;;1.10;;
77148;SDS011;66122;47.130;16.844;2023-09-19T21:08:54;0.80;;;0.60;;
77148;SDS011;66122;47.130;16.844;2023-09-19T21:18:56;1.10;;;1.00;;
77148;SDS011;66122;47.130;16.844;2023-09-19T21:29:01;0.80;;;0.70;;
77148;SDS011;66122;47.130;16.844;2023-09-19T21:39:04;0.90;;;0.80;;
77148;SDS011;66122;47.130;16.844;2023-09-19T21:49:07;0.90;;;0.80;;
77148;SDS011;66122;47.130;16.844;2023-09-19T21:59:09;0.80;;;0.60;;
77148;SDS011;66122;47.130;16.844;2023-09-19T22:09:13;1.10;;;1.00;;
77148;SDS011;66122;47.130;16.844;2023-09-19T22:19:15;1.07;;;0.97;;
77148;SDS011;66122;47.130;16.844;2023-09-19T22:29:18;0.80;;;0.70;;
77148;SDS011;66122;47.130;16.844;2023-09-19T22:39:21;0.80;;;0.60;;
77148;SDS011;66122;47.130;16.844;2023-09-19T22:49:31;0.80;;;0.63;;
77148;SDS011;66122;47.130;16.844;2023-09-19T22:59:34;0.80;;;0.60;;
77148;SDS011;66122;47.130;16.844;2023-09-19T23:09:37;1.13;;;1.02;;
77148;SDS011;66122;47.130;16.844;2023-09-19T23:19:41;0.83;;;0.73;;
77148;SDS011;66122;47.130;16.844;2023-09-19T23:29:44;0.90;;;0.80;;
77148;SDS011;66122;47.130;16.844;2023-09-19T23:39:48;0.90;;;0.80;;
77148;SDS011;66122;47.130;16.844;2023-09-19T23:49:53;0.70;;;0.60;;
77148;SDS011;66122;47.130;16.844;2023-09-19T23:59:56;0.90;;;0.77;;
